createdAt,value
2022-10-18T04:12:40.783Z,96.32
2022-10-18T04:15:08.858Z,90.25
2022-10-18T04:17:36.936Z,78.60
2022-10-18T04:20:05.249Z,74.68
2022-10-18T04:22:33.074Z,81.32
2022-10-18T04:25:00.727Z,85.93
2022-10-18T04:27:28.525Z,82.40
2022-10-18T04:29:56.318Z,87.15
2022-10-18T04:32:24.539Z,86.95
2022-10-18T04:34:51.783Z,97.38
2022-10-18T04:37:18.976Z,93.10
2022-10-18T04:39:51.360Z,97.45
2022-10-18T04:42:22.085Z,88.82
2022-10-18T04:44:49.837Z,99.00
2022-10-18T04:47:17.955Z,85.80
2022-10-18T04:49:45.184Z,81.07
2022-10-18T04:52:12.508Z,82.32
2022-10-18T04:54:40.171Z,87.47
2022-10-18T04:57:07.755Z,87.60
2022-10-18T04:59:35.034Z,93.25
2022-10-18T05:04:34.410Z,91.75
2022-10-18T05:07:02.789Z,101.60
2022-10-18T05:09:30.060Z,92.30
2022-10-18T05:11:57.252Z,100.10
2022-10-18T05:14:24.971Z,96.22
2022-10-18T05:16:52.737Z,89.72
2022-10-18T05:19:20.191Z,89.43
2022-10-18T05:21:47.993Z,100.30
2022-10-18T05:24:15.211Z,99.80
2022-10-18T05:26:42.472Z,96.32
2022-10-18T05:29:09.870Z,91.38
2022-10-18T05:31:37.420Z,96.50
2022-10-18T05:34:04.819Z,97.40
2022-10-18T05:36:32.124Z,95.55
2022-10-18T05:39:02.432Z,91.18
2022-10-18T05:41:32.960Z,94.57
2022-10-18T05:44:04.675Z,86.25
2022-10-18T05:48:59.320Z,88.13
2022-10-18T05:51:26.781Z,85.50
2022-10-18T05:53:54.772Z,90.63
2022-10-18T05:56:22.096Z,90.65
2022-10-18T05:58:51.196Z,100.95
2022-10-18T06:01:19.760Z,110.78
2022-10-18T06:03:47.213Z,96.50
2022-10-18T06:06:15.485Z,102.57
2022-10-18T06:08:43.806Z,107.47
2022-10-18T06:11:16.922Z,111.65
2022-10-18T06:13:47.208Z,110.60
2022-10-18T06:16:16.981Z,113.88
2022-10-18T06:18:48.846Z,110.32
2022-10-18T06:23:48.285Z,117.10
2022-10-18T06:26:16.004Z,110.13
2022-10-18T06:28:44.828Z,117.38
2022-10-18T06:31:13.291Z,122.88
2022-10-18T06:33:41.409Z,122.82
2022-10-18T06:36:14.800Z,133.32
2022-10-18T06:38:42.416Z,130.90
2022-10-18T06:41:10.529Z,131.23
2022-10-18T06:43:37.830Z,125.10
2022-10-18T06:46:08.024Z,122.03
2022-10-18T06:48:36.747Z,118.85
2022-10-18T06:51:06.877Z,128.30
2022-10-18T06:53:44.099Z,137.07
2022-10-18T06:56:16.292Z,150.55
2022-10-18T06:58:43.866Z,130.00
2022-10-18T07:01:17.376Z,140.05
2022-10-18T07:03:46.705Z,146.70
2022-10-18T07:06:16.977Z,147.55
2022-10-18T07:08:44.769Z,152.98
2022-10-18T07:11:21.476Z,141.63
2022-10-18T07:13:48.850Z,142.07
2022-10-18T07:16:19.423Z,146.85
2022-10-18T07:18:51.451Z,147.10
2022-10-18T07:21:21.944Z,148.00
2022-10-18T07:23:50.508Z,149.25
2022-10-18T07:26:21.715Z,150.10
2022-10-18T07:28:55.318Z,150.30
2022-10-18T07:31:23.676Z,154.48
2022-10-18T07:33:51.896Z,148.52
2022-10-18T07:36:21.290Z,147.93
2022-10-18T07:38:49.833Z,144.25
2022-10-18T07:41:17.412Z,128.85
2022-10-18T07:43:50.848Z,137.82
2022-10-18T07:46:19.507Z,132.48
2022-10-18T07:48:47.279Z,132.38
2022-10-18T07:51:14.790Z,119.50
2022-10-18T07:53:42.380Z,124.82
2022-10-18T07:56:16.193Z,126.03
2022-10-18T07:58:54.144Z,127.47
2022-10-18T08:01:24.059Z,133.90
2022-10-18T08:03:53.182Z,117.88
2022-10-18T08:06:22.856Z,113.18
2022-10-18T08:08:50.792Z,118.75
2022-10-18T08:11:21.011Z,120.13
2022-10-18T08:13:49.099Z,115.75
2022-10-18T08:16:20.623Z,119.88
2022-10-18T08:18:48.008Z,119.43
2022-10-18T08:21:17.255Z,116.05
2022-10-18T08:23:44.987Z,119.75
2022-10-18T08:26:15.737Z,118.07
2022-10-18T08:28:49.109Z,115.57
2022-10-18T08:31:21.490Z,116.03
2022-10-18T08:33:48.983Z,115.13
2022-10-18T08:36:17.092Z,111.95
2022-10-18T08:38:44.563Z,114.75
2022-10-18T08:41:33.759Z,127.40
2022-10-18T08:44:24.841Z,112.97
2022-10-18T08:47:00.329Z,110.00
2022-10-18T08:49:34.636Z,107.15
2022-10-18T08:52:06.478Z,115.85
2022-10-18T08:54:39.465Z,101.72
2022-10-18T08:57:18.224Z,100.35
2022-10-18T08:59:45.979Z,96.72
2022-10-18T09:02:39.424Z,106.95
2022-10-18T09:05:34.300Z,102.90
2022-10-18T09:08:30.880Z,96.03
2022-10-18T09:11:26.756Z,91.15
2022-10-18T09:14:22.590Z,104.78
2022-10-18T09:17:20.558Z,107.97
2022-10-18T09:20:19.830Z,101.07
2022-10-18T09:23:15.684Z,108.97
2022-10-18T09:25:51.999Z,105.85
2022-10-18T09:28:46.781Z,100.63
2022-10-18T09:31:41.092Z,97.68
2022-10-18T09:34:22.816Z,97.70
2022-10-18T09:39:24.900Z,92.07
2022-10-18T09:42:00.186Z,96.70
2022-10-18T09:44:34.492Z,90.15
2022-10-18T09:47:06.337Z,93.68
2022-10-18T09:49:40.353Z,90.55
2022-10-18T09:52:18.719Z,84.72
2022-10-18T09:55:15.149Z,89.90
2022-10-18T09:57:55.453Z,91.22
2022-10-18T10:00:31.054Z,91.80
2022-10-18T10:03:00.928Z,95.25
2022-10-18T10:05:28.251Z,95.03
2022-10-18T10:07:59.894Z,89.35
2022-10-18T10:10:29.722Z,88.03
2022-10-18T10:13:03.726Z,94.43
2022-10-18T10:15:36.953Z,88.80
2022-10-18T10:18:25.220Z,84.78
2022-10-18T10:20:54.372Z,90.97
2022-10-18T10:23:26.945Z,81.20
2022-10-18T10:26:03.792Z,77.88
2022-10-18T10:28:36.739Z,75.03
2022-10-18T10:31:24.901Z,74.90
2022-10-18T10:34:18.219Z,92.00
2022-10-18T10:36:48.497Z,77.15
2022-10-18T10:39:19.260Z,77.57
2022-10-18T10:41:55.660Z,77.25
2022-10-18T10:44:26.974Z,66.70
2022-10-18T10:49:42.496Z,73.78
2022-10-18T10:52:27.656Z,74.70
2022-10-18T10:57:48.903Z,67.15
2022-10-18T11:00:37.616Z,90.03
2022-10-18T11:03:28.559Z,68.82
2022-10-18T11:06:00.324Z,72.00
2022-10-18T11:08:33.979Z,81.25
2022-10-18T11:11:19.266Z,77.07
2022-10-18T11:14:07.380Z,72.45
2022-10-18T11:20:03.316Z,73.35
2022-10-18T11:22:38.601Z,74.78
2022-10-18T11:25:08.269Z,77.82
2022-10-18T11:27:46.627Z,69.72
2022-10-18T11:30:55.433Z,73.70
2022-10-18T11:34:07.103Z,76.00
2022-10-18T11:36:32.106Z,81.78
2022-10-18T11:39:30.473Z,75.80
2022-10-18T11:42:24.544Z,71.15
2022-10-18T11:45:10.640Z,82.78
2022-10-18T11:47:52.265Z,77.50
2022-10-18T11:50:53.825Z,75.63
2022-10-18T11:53:38.471Z,81.40
2022-10-18T11:56:12.159Z,78.13
2022-10-18T11:59:06.549Z,71.80
2022-10-18T12:02:03.501Z,77.10
2022-10-18T12:04:39.179Z,70.43
2022-10-18T12:07:21.190Z,83.40
2022-10-18T12:09:54.801Z,74.82
2022-10-18T12:12:30.024Z,83.22
2022-10-18T12:15:02.998Z,82.40
2022-10-18T12:17:49.914Z,76.75
2022-10-18T12:20:24.856Z,73.43
2022-10-18T12:22:59.289Z,74.82
2022-10-18T12:25:33.799Z,69.45
2022-10-18T12:28:36.303Z,72.15
2022-10-18T12:31:08.213Z,66.25
2022-10-18T12:33:40.173Z,66.18
2022-10-18T12:36:23.393Z,62.13
2022-10-18T12:38:58.645Z,61.72
2022-10-18T12:41:32.356Z,67.75
2022-10-18T12:44:19.103Z,65.57
2022-10-18T12:46:54.902Z,61.53
2022-10-18T12:49:29.816Z,59.72
2022-10-18T12:52:01.896Z,66.78
2022-10-18T12:54:34.981Z,53.67
2022-10-18T12:57:05.835Z,60.08
2022-10-18T12:59:33.015Z,48.47
2022-10-18T13:02:00.322Z,56.50
2022-10-18T13:04:27.595Z,57.00
2022-10-18T13:07:00.765Z,61.90
2022-10-18T13:09:44.450Z,55.67
2022-10-18T13:12:12.343Z,63.58
2022-10-18T13:15:24.732Z,55.33
2022-10-18T13:18:03.840Z,65.63
2022-10-18T13:20:31.627Z,56.53
2022-10-18T13:23:31.606Z,65.72
2022-10-18T13:26:23.885Z,55.42
2022-10-18T13:28:57.307Z,72.18
2022-10-18T13:31:42.349Z,53.40
2022-10-18T13:34:24.959Z,51.45
2022-10-18T13:37:05.129Z,55.28
2022-10-18T13:39:33.661Z,54.28
2022-10-18T13:42:01.303Z,46.58
2022-10-18T13:44:37.713Z,43.13
2022-10-18T13:47:05.160Z,49.28
2022-10-18T13:49:38.542Z,41.30
2022-10-18T13:52:18.094Z,45.65
2022-10-18T13:54:54.519Z,39.42
2022-10-18T13:57:24.400Z,45.53
2022-10-18T14:00:19.578Z,38.97
2022-10-18T14:03:51.509Z,37.20
2022-10-18T14:06:22.577Z,42.85
2022-10-18T14:08:56.256Z,43.33
2022-10-18T14:11:45.978Z,36.58
2022-10-18T14:14:41.059Z,45.13
2022-10-18T14:17:15.360Z,43.70
2022-10-18T14:19:52.242Z,37.60
2022-10-18T14:22:38.393Z,34.88
2022-10-18T14:25:21.033Z,42.03
2022-10-18T14:27:50.953Z,39.42
2022-10-18T14:30:21.267Z,44.00
2022-10-18T14:32:51.868Z,45.28
2022-10-18T14:35:32.410Z,40.90
2022-10-18T14:38:00.591Z,39.25
2022-10-18T14:40:40.736Z,45.78
2022-10-18T14:43:19.182Z,47.97
2022-10-18T14:45:46.724Z,40.42
2022-10-18T14:48:16.820Z,39.65
2022-10-18T14:50:48.605Z,44.13
2022-10-18T14:53:19.169Z,50.53
2022-10-18T14:56:04.584Z,36.80
2022-10-18T14:58:32.704Z,42.10
2022-10-18T15:01:00.612Z,46.55
2022-10-18T15:03:28.505Z,46.45
2022-10-18T15:05:59.619Z,41.05
2022-10-18T15:08:35.957Z,50.00
2022-10-18T15:11:03.609Z,47.50
2022-10-18T15:13:32.277Z,46.13
2022-10-18T15:16:00.074Z,53.75
2022-10-18T15:18:28.543Z,48.88
2022-10-18T15:21:21.313Z,48.63
2022-10-18T15:23:49.980Z,44.38
2022-10-18T15:26:29.676Z,42.17
2022-10-18T15:29:01.445Z,40.03
2022-10-18T15:31:35.799Z,39.90
2022-10-18T15:34:14.940Z,42.38
2022-10-18T15:39:25.766Z,36.28
2022-10-18T15:41:57.813Z,40.92
2022-10-18T15:44:31.563Z,37.78
2022-10-18T15:47:21.340Z,40.08
2022-10-18T15:49:58.412Z,44.97
2022-10-18T15:52:39.771Z,42.83
2022-10-18T15:55:32.920Z,36.67
2022-10-18T15:58:17.401Z,38.92
2022-10-18T16:00:46.539Z,46.83
2022-10-18T16:03:15.397Z,49.97
2022-10-18T16:05:42.895Z,42.55
2022-10-18T16:08:25.172Z,43.95
2022-10-18T16:10:52.403Z,40.17
2022-10-18T16:13:20.211Z,39.50
2022-10-18T16:15:47.614Z,49.13
2022-10-18T16:18:17.827Z,43.10
2022-10-18T16:20:47.768Z,41.33
2022-10-18T16:23:22.028Z,43.95
2022-10-18T16:25:50.459Z,44.47
2022-10-18T16:28:20.820Z,50.72
2022-10-18T16:30:55.731Z,45.75
2022-10-18T16:33:24.949Z,42.97
2022-10-18T16:35:53.195Z,50.25
2022-10-18T16:38:35.172Z,53.20
2022-10-18T16:41:05.498Z,55.03
2022-10-18T16:43:34.862Z,50.08
2022-10-18T16:46:04.019Z,52.53
2022-10-18T16:48:31.578Z,56.92
2022-10-18T16:50:59.234Z,57.35
2022-10-18T16:53:28.043Z,56.00
2022-10-18T16:56:01.584Z,52.15
2022-10-18T16:58:32.025Z,51.78
2022-10-18T17:01:01.819Z,53.15
2022-10-18T17:03:31.660Z,47.67
2022-10-18T17:05:58.933Z,52.40
2022-10-18T17:08:28.145Z,55.50
2022-10-18T17:10:58.587Z,50.97
2022-10-18T17:13:26.146Z,70.80
2022-10-18T17:15:53.965Z,50.50
2022-10-18T17:18:26.226Z,58.92
2022-10-18T17:20:54.130Z,60.67
2022-10-18T17:23:21.749Z,49.17
2022-10-18T17:26:04.724Z,56.83
2022-10-18T17:28:38.384Z,59.95
2022-10-18T17:31:07.732Z,49.85
2022-10-18T17:33:35.659Z,54.40
2022-10-18T17:36:04.112Z,61.60
2022-10-18T17:38:31.633Z,54.70
2022-10-18T17:40:59.253Z,59.88
2022-10-18T17:43:26.604Z,59.55
2022-10-18T17:45:56.173Z,60.15
2022-10-18T17:48:24.596Z,63.47
2022-10-18T17:50:52.356Z,64.40
2022-10-18T17:53:22.799Z,63.72
2022-10-18T17:55:50.536Z,53.35
2022-10-18T17:58:18.209Z,65.00
2022-10-18T18:00:45.984Z,61.90
2022-10-18T18:03:14.178Z,60.17
2022-10-18T18:05:41.567Z,64.35
2022-10-18T18:08:09.255Z,70.28
2022-10-18T18:10:36.513Z,73.45
2022-10-18T18:13:04.301Z,59.35
2022-10-18T18:15:32.137Z,58.72
2022-10-18T18:17:59.858Z,63.70
2022-10-18T18:20:27.230Z,70.68
2022-10-18T18:22:54.543Z,62.78
2022-10-18T18:25:21.803Z,59.50
2022-10-18T18:27:50.057Z,75.47
2022-10-18T18:30:17.898Z,62.03
2022-10-18T18:32:45.443Z,69.28
2022-10-18T18:35:13.281Z,65.03
2022-10-18T18:37:40.557Z,72.72
2022-10-18T18:40:09.428Z,67.38
2022-10-18T18:42:37.774Z,60.33
2022-10-18T18:45:05.526Z,77.70
2022-10-18T18:47:35.428Z,76.25
2022-10-18T18:50:02.740Z,75.57
2022-10-18T18:52:30.943Z,72.75
2022-10-18T18:54:58.811Z,76.55
2022-10-18T18:57:26.071Z,77.15
2022-10-18T18:59:53.272Z,64.47
2022-10-18T19:02:20.528Z,65.47
2022-10-18T19:04:48.389Z,70.50
2022-10-18T19:07:15.786Z,72.03
2022-10-18T19:09:44.627Z,70.93
2022-10-18T19:12:11.833Z,89.45
2022-10-18T19:14:39.114Z,78.72
2022-10-18T19:17:07.841Z,64.88
2022-10-18T19:19:35.541Z,68.93
2022-10-18T19:22:09.496Z,70.35
2022-10-18T19:24:37.437Z,71.18
2022-10-18T19:27:09.612Z,63.88
2022-10-18T19:29:38.782Z,76.60
2022-10-18T19:32:08.753Z,67.10
2022-10-18T19:34:36.459Z,83.15
2022-10-18T19:37:03.972Z,71.22
2022-10-18T19:39:33.744Z,68.82
2022-10-18T19:42:05.211Z,69.00
2022-10-18T19:44:35.800Z,65.55
2022-10-18T19:47:07.702Z,69.13
2022-10-18T19:49:35.492Z,62.20
2022-10-18T19:52:02.757Z,66.50
2022-10-18T19:54:30.599Z,62.22
2022-10-18T19:56:57.943Z,67.05
2022-10-18T19:59:26.392Z,70.70
2022-10-18T20:01:54.117Z,75.75
2022-10-18T20:04:21.673Z,66.32
2022-10-18T20:06:50.624Z,64.60
2022-10-18T20:09:20.754Z,65.78
2022-10-18T20:11:48.653Z,70.32
2022-10-18T20:14:15.889Z,67.15
2022-10-18T20:16:43.176Z,65.07
2022-10-18T20:19:10.516Z,67.13
2022-10-18T20:21:39.328Z,76.70
2022-10-18T20:24:09.253Z,70.13
2022-10-18T20:26:37.120Z,70.75
2022-10-18T20:29:05.062Z,71.75
2022-10-18T20:31:35.796Z,79.82
2022-10-18T20:34:08.397Z,75.43
2022-10-18T20:36:36.668Z,71.57
2022-10-18T20:39:04.490Z,74.53
2022-10-18T20:41:34.605Z,62.40
2022-10-18T20:44:08.377Z,67.82
2022-10-18T20:46:37.011Z,70.50
2022-10-18T20:49:07.063Z,75.20
2022-10-18T20:51:35.219Z,70.03
2022-10-18T20:56:35.537Z,75.43
2022-10-18T20:59:06.053Z,72.75
2022-10-18T21:01:35.500Z,74.60
2022-10-18T21:04:08.013Z,72.82
2022-10-18T21:06:40.321Z,78.13
2022-10-18T21:09:13.385Z,73.88
2022-10-18T21:11:43.247Z,70.80
2022-10-18T21:14:19.291Z,71.15
2022-10-18T21:16:48.059Z,84.40
2022-10-18T21:19:18.415Z,72.47
2022-10-18T21:21:47.686Z,69.72
2022-10-18T21:24:15.804Z,68.85
2022-10-18T21:26:43.648Z,74.13
2022-10-18T21:29:12.875Z,71.47
2022-10-18T21:31:42.128Z,72.88
2022-10-18T21:34:17.554Z,75.72
2022-10-18T21:36:48.455Z,73.45
2022-10-18T21:39:20.044Z,75.95
2022-10-18T21:44:16.462Z,64.78
2022-10-18T21:46:44.478Z,76.32
2022-10-18T21:49:12.427Z,77.38
2022-10-18T21:51:40.603Z,70.05
2022-10-18T21:54:13.212Z,66.22
2022-10-18T21:56:40.873Z,66.78
2022-10-18T21:59:08.217Z,68.07
